sensor_id;sensor_type;location;lat;lon;timestamp;P1;durP1;ratioP1;P2;durP2;ratioP2
55328;SDS011;41205;44.264;19.884;2022-12-18T00:00:58;59.97;;;35.95;;
55328;SDS011;41205;44.264;19.884;2022-12-18T00:03:25;54.22;;;35.10;;
55328;SDS011;41205;44.264;19.884;2022-12-18T00:05:51;39.53;;;23.70;;
55328;SDS011;41205;44.264;19.884;2022-12-18T00:08:17;47.90;;;23.05;;
55328;SDS011;41205;44.264;19.884;2022-12-18T00:10:44;33.85;;;22.33;;
55328;SDS011;41205;44.264;19.884;2022-12-18T00:13:10;46.97;;;28.95;;
55328;SDS011;41205;44.264;19.884;2022-12-18T00:15:36;38.10;;;20.58;;
55328;SDS011;41205;44.264;19.884;2022-12-18T00:18:03;37.85;;;23.33;;
55328;SDS011;41205;44.264;19.884;2022-12-18T00:20:29;45.15;;;27.13;;
55328;SDS011;41205;44.264;19.884;2022-12-18T00:22:55;39.35;;;24.70;;
55328;SDS011;41205;44.264;19.884;2022-12-18T00:25:21;60.92;;;36.38;;
55328;SDS011;41205;44.264;19.884;2022-12-18T00:27:47;43.22;;;26.08;;
55328;SDS011;41205;44.264;19.884;2022-12-18T00:30:13;41.22;;;22.85;;
55328;SDS011;41205;44.264;19.884;2022-12-18T00:32:39;41.72;;;24.42;;
55328;SDS011;41205;44.264;19.884;2022-12-18T00:35:05;40.08;;;22.95;;
55328;SDS011;41205;44.264;19.884;2022-12-18T00:37:33;42.22;;;24.23;;
55328;SDS011;41205;44.264;19.884;2022-12-18T00:39:59;45.17;;;28.38;;
55328;SDS011;41205;44.264;19.884;2022-12-18T00:42:25;38.20;;;24.42;;
55328;SDS011;41205;44.264;19.884;2022-12-18T00:45:09;39.97;;;23.73;;
55328;SDS011;41205;44.264;19.884;2022-12-18T00:47:35;35.38;;;19.55;;
55328;SDS011;41205;44.264;19.884;2022-12-18T00:50:00;34.65;;;20.13;;
55328;SDS011;41205;44.264;19.884;2022-12-18T00:52:26;31.63;;;20.30;;
55328;SDS011;41205;44.264;19.884;2022-12-18T00:54:52;35.50;;;19.42;;
55328;SDS011;41205;44.264;19.884;2022-12-18T00:57:18;32.95;;;20.33;;
55328;SDS011;41205;44.264;19.884;2022-12-18T00:59:44;29.75;;;18.38;;
55328;SDS011;41205;44.264;19.884;2022-12-18T01:02:10;34.55;;;20.17;;
55328;SDS011;41205;44.264;19.884;2022-12-18T01:04:35;30.35;;;18.92;;
55328;SDS011;41205;44.264;19.884;2022-12-18T01:07:01;32.20;;;18.38;;
55328;SDS011;41205;44.264;19.884;2022-12-18T01:09:27;27.33;;;18.58;;
55328;SDS011;41205;44.264;19.884;2022-12-18T01:11:52;37.50;;;20.05;;
55328;SDS011;41205;44.264;19.884;2022-12-18T01:14:18;32.05;;;19.15;;
55328;SDS011;41205;44.264;19.884;2022-12-18T01:16:44;40.85;;;27.23;;
55328;SDS011;41205;44.264;19.884;2022-12-18T01:19:10;32.72;;;21.20;;
55328;SDS011;41205;44.264;19.884;2022-12-18T01:21:35;33.08;;;19.85;;
55328;SDS011;41205;44.264;19.884;2022-12-18T01:24:01;34.35;;;20.10;;
55328;SDS011;41205;44.264;19.884;2022-12-18T01:26:27;30.85;;;17.60;;
55328;SDS011;41205;44.264;19.884;2022-12-18T01:28:55;35.05;;;19.48;;
55328;SDS011;41205;44.264;19.884;2022-12-18T01:31:25;28.92;;;17.85;;
55328;SDS011;41205;44.264;19.884;2022-12-18T01:33:54;39.53;;;21.63;;
55328;SDS011;41205;44.264;19.884;2022-12-18T01:36:25;34.85;;;20.83;;
55328;SDS011;41205;44.264;19.884;2022-12-18T01:38:54;31.60;;;19.45;;
55328;SDS011;41205;44.264;19.884;2022-12-18T01:41:22;35.67;;;19.65;;
55328;SDS011;41205;44.264;19.884;2022-12-18T01:46:25;28.42;;;17.70;;
55328;SDS011;41205;44.264;19.884;2022-12-18T01:48:59;31.10;;;18.13;;
55328;SDS011;41205;44.264;19.884;2022-12-18T01:51:26;30.00;;;20.10;;
55328;SDS011;41205;44.264;19.884;2022-12-18T01:53:54;31.83;;;20.00;;
55328;SDS011;41205;44.264;19.884;2022-12-18T01:56:20;34.70;;;18.20;;
55328;SDS011;41205;44.264;19.884;2022-12-18T02:01:25;27.25;;;17.27;;
55328;SDS011;41205;44.264;19.884;2022-12-18T02:03:51;27.52;;;17.90;;
55328;SDS011;41205;44.264;19.884;2022-12-18T02:08:48;32.28;;;19.65;;
55328;SDS011;41205;44.264;19.884;2022-12-18T02:14:14;27.70;;;16.58;;
55328;SDS011;41205;44.264;19.884;2022-12-18T02:16:54;39.88;;;23.88;;
55328;SDS011;41205;44.264;19.884;2022-12-18T02:27:39;30.95;;;18.98;;
55328;SDS011;41205;44.264;19.884;2022-12-18T02:30:06;42.38;;;24.27;;
55328;SDS011;41205;44.264;19.884;2022-12-18T02:32:43;27.73;;;17.05;;
55328;SDS011;41205;44.264;19.884;2022-12-18T02:35:24;35.15;;;21.35;;
55328;SDS011;41205;44.264;19.884;2022-12-18T02:37:54;60.17;;;33.13;;
55328;SDS011;41205;44.264;19.884;2022-12-18T02:40:20;31.33;;;17.38;;
55328;SDS011;41205;44.264;19.884;2022-12-18T02:42:49;57.20;;;30.58;;
55328;SDS011;41205;44.264;19.884;2022-12-18T02:45:15;37.47;;;20.75;;
55328;SDS011;41205;44.264;19.884;2022-12-18T02:47:42;33.40;;;20.83;;
55328;SDS011;41205;44.264;19.884;2022-12-18T02:50:16;36.45;;;20.15;;
55328;SDS011;41205;44.264;19.884;2022-12-18T02:53:31;35.30;;;20.17;;
55328;SDS011;41205;44.264;19.884;2022-12-18T02:56:07;38.03;;;25.95;;
55328;SDS011;41205;44.264;19.884;2022-12-18T03:01:28;34.28;;;17.00;;
55328;SDS011;41205;44.264;19.884;2022-12-18T03:04:01;31.20;;;18.77;;
55328;SDS011;41205;44.264;19.884;2022-12-18T03:06:37;26.67;;;16.33;;
55328;SDS011;41205;44.264;19.884;2022-12-18T03:09:12;35.28;;;23.67;;
55328;SDS011;41205;44.264;19.884;2022-12-18T03:11:56;28.27;;;18.23;;
55328;SDS011;41205;44.264;19.884;2022-12-18T03:14:46;25.23;;;15.60;;
55328;SDS011;41205;44.264;19.884;2022-12-18T03:17:25;28.02;;;16.65;;
55328;SDS011;41205;44.264;19.884;2022-12-18T03:19:53;29.65;;;18.70;;
55328;SDS011;41205;44.264;19.884;2022-12-18T03:22:22;27.50;;;16.00;;
55328;SDS011;41205;44.264;19.884;2022-12-18T03:24:49;29.02;;;17.80;;
55328;SDS011;41205;44.264;19.884;2022-12-18T03:27:18;26.70;;;16.05;;
55328;SDS011;41205;44.264;19.884;2022-12-18T03:30:00;26.52;;;16.00;;
55328;SDS011;41205;44.264;19.884;2022-12-18T03:32:55;28.42;;;16.17;;
55328;SDS011;41205;44.264;19.884;2022-12-18T03:35:37;30.38;;;16.48;;
55328;SDS011;41205;44.264;19.884;2022-12-18T03:38:05;29.02;;;14.20;;
55328;SDS011;41205;44.264;19.884;2022-12-18T03:40:43;27.90;;;16.88;;
55328;SDS011;41205;44.264;19.884;2022-12-18T03:43:40;31.85;;;16.38;;
55328;SDS011;41205;44.264;19.884;2022-12-18T03:46:20;27.80;;;15.40;;
55328;SDS011;41205;44.264;19.884;2022-12-18T03:48:52;26.98;;;15.73;;
55328;SDS011;41205;44.264;19.884;2022-12-18T03:53:55;22.73;;;13.82;;
55328;SDS011;41205;44.264;19.884;2022-12-18T03:56:31;25.25;;;14.90;;
55328;SDS011;41205;44.264;19.884;2022-12-18T03:59:02;23.20;;;15.20;;
55328;SDS011;41205;44.264;19.884;2022-12-18T04:01:37;28.30;;;15.43;;
55328;SDS011;41205;44.264;19.884;2022-12-18T04:04:05;24.58;;;14.57;;
55328;SDS011;41205;44.264;19.884;2022-12-18T04:06:33;27.73;;;16.10;;
55328;SDS011;41205;44.264;19.884;2022-12-18T04:09:02;23.63;;;13.32;;
55328;SDS011;41205;44.264;19.884;2022-12-18T04:11:29;27.70;;;16.58;;
55328;SDS011;41205;44.264;19.884;2022-12-18T04:13:55;22.77;;;13.27;;
55328;SDS011;41205;44.264;19.884;2022-12-18T04:16:22;25.88;;;15.13;;
55328;SDS011;41205;44.264;19.884;2022-12-18T04:18:49;26.52;;;14.70;;
55328;SDS011;41205;44.264;19.884;2022-12-18T04:21:14;28.05;;;16.00;;
55328;SDS011;41205;44.264;19.884;2022-12-18T04:23:40;27.25;;;14.25;;
55328;SDS011;41205;44.264;19.884;2022-12-18T04:26:06;24.50;;;15.52;;
55328;SDS011;41205;44.264;19.884;2022-12-18T04:28:31;24.02;;;15.15;;
55328;SDS011;41205;44.264;19.884;2022-12-18T04:30:57;27.70;;;15.38;;
55328;SDS011;41205;44.264;19.884;2022-12-18T04:33:23;26.67;;;14.30;;
55328;SDS011;41205;44.264;19.884;2022-12-18T04:35:48;30.23;;;16.83;;
55328;SDS011;41205;44.264;19.884;2022-12-18T04:38:14;25.75;;;14.43;;
55328;SDS011;41205;44.264;19.884;2022-12-18T04:40:40;22.60;;;15.68;;
55328;SDS011;41205;44.264;19.884;2022-12-18T04:43:06;25.92;;;15.27;;
55328;SDS011;41205;44.264;19.884;2022-12-18T04:45:32;29.77;;;15.02;;
55328;SDS011;41205;44.264;19.884;2022-12-18T04:47:58;28.35;;;15.43;;
55328;SDS011;41205;44.264;19.884;2022-12-18T04:50:24;28.25;;;15.13;;
55328;SDS011;41205;44.264;19.884;2022-12-18T04:52:50;27.30;;;14.98;;
55328;SDS011;41205;44.264;19.884;2022-12-18T04:55:16;27.88;;;14.25;;
55328;SDS011;41205;44.264;19.884;2022-12-18T04:57:42;26.65;;;15.10;;
55328;SDS011;41205;44.264;19.884;2022-12-18T05:00:07;24.67;;;14.85;;
55328;SDS011;41205;44.264;19.884;2022-12-18T05:02:34;26.38;;;15.02;;
55328;SDS011;41205;44.264;19.884;2022-12-18T05:04:59;25.83;;;15.07;;
55328;SDS011;41205;44.264;19.884;2022-12-18T05:07:25;24.83;;;13.45;;
55328;SDS011;41205;44.264;19.884;2022-12-18T05:09:51;23.38;;;14.40;;
55328;SDS011;41205;44.264;19.884;2022-12-18T05:12:16;28.70;;;15.32;;
55328;SDS011;41205;44.264;19.884;2022-12-18T05:14:42;26.67;;;15.05;;
55328;SDS011;41205;44.264;19.884;2022-12-18T05:17:08;24.55;;;14.40;;
55328;SDS011;41205;44.264;19.884;2022-12-18T05:19:33;30.45;;;14.85;;
55328;SDS011;41205;44.264;19.884;2022-12-18T05:21:59;24.15;;;14.25;;
55328;SDS011;41205;44.264;19.884;2022-12-18T05:24:26;25.52;;;14.13;;
55328;SDS011;41205;44.264;19.884;2022-12-18T05:26:52;29.60;;;15.15;;
55328;SDS011;41205;44.264;19.884;2022-12-18T05:29:18;23.08;;;13.70;;
55328;SDS011;41205;44.264;19.884;2022-12-18T05:31:43;26.40;;;16.48;;
55328;SDS011;41205;44.264;19.884;2022-12-18T05:34:09;27.92;;;15.93;;
55328;SDS011;41205;44.264;19.884;2022-12-18T05:36:35;47.13;;;34.40;;
55328;SDS011;41205;44.264;19.884;2022-12-18T05:39:00;29.00;;;16.50;;
55328;SDS011;41205;44.264;19.884;2022-12-18T05:41:26;28.60;;;16.58;;
55328;SDS011;41205;44.264;19.884;2022-12-18T05:43:53;30.85;;;16.90;;
55328;SDS011;41205;44.264;19.884;2022-12-18T05:46:19;26.10;;;16.15;;
55328;SDS011;41205;44.264;19.884;2022-12-18T05:48:45;30.23;;;17.80;;
55328;SDS011;41205;44.264;19.884;2022-12-18T05:51:15;36.28;;;19.10;;
55328;SDS011;41205;44.264;19.884;2022-12-18T05:53:42;30.70;;;16.67;;
55328;SDS011;41205;44.264;19.884;2022-12-18T05:56:11;28.15;;;17.45;;
55328;SDS011;41205;44.264;19.884;2022-12-18T05:58:39;25.88;;;16.17;;
55328;SDS011;41205;44.264;19.884;2022-12-18T06:01:06;27.10;;;15.00;;
55328;SDS011;41205;44.264;19.884;2022-12-18T06:03:35;25.88;;;16.10;;
55328;SDS011;41205;44.264;19.884;2022-12-18T06:06:01;29.30;;;17.42;;
55328;SDS011;41205;44.264;19.884;2022-12-18T06:08:27;24.23;;;15.23;;
55328;SDS011;41205;44.264;19.884;2022-12-18T06:10:53;28.63;;;17.48;;
55328;SDS011;41205;44.264;19.884;2022-12-18T06:13:19;27.55;;;16.77;;
55328;SDS011;41205;44.264;19.884;2022-12-18T06:15:45;32.28;;;18.08;;
55328;SDS011;41205;44.264;19.884;2022-12-18T06:18:10;27.52;;;16.60;;
55328;SDS011;41205;44.264;19.884;2022-12-18T06:20:36;26.77;;;17.02;;
55328;SDS011;41205;44.264;19.884;2022-12-18T06:23:04;25.77;;;16.13;;
55328;SDS011;41205;44.264;19.884;2022-12-18T06:25:30;22.77;;;15.15;;
55328;SDS011;41205;44.264;19.884;2022-12-18T06:27:57;30.92;;;17.05;;
55328;SDS011;41205;44.264;19.884;2022-12-18T06:30:22;29.40;;;18.63;;
55328;SDS011;41205;44.264;19.884;2022-12-18T06:32:49;26.75;;;16.27;;
55328;SDS011;41205;44.264;19.884;2022-12-18T06:35:14;32.47;;;19.23;;
55328;SDS011;41205;44.264;19.884;2022-12-18T06:37:40;35.03;;;17.20;;
55328;SDS011;41205;44.264;19.884;2022-12-18T06:40:06;31.33;;;18.88;;
55328;SDS011;41205;44.264;19.884;2022-12-18T06:42:32;30.92;;;18.85;;
55328;SDS011;41205;44.264;19.884;2022-12-18T06:44:58;30.98;;;18.30;;
55328;SDS011;41205;44.264;19.884;2022-12-18T06:47:23;30.65;;;19.23;;
55328;SDS011;41205;44.264;19.884;2022-12-18T06:49:49;31.45;;;22.17;;
55328;SDS011;41205;44.264;19.884;2022-12-18T06:52:15;35.65;;;21.75;;
55328;SDS011;41205;44.264;19.884;2022-12-18T06:54:40;39.83;;;27.17;;
55328;SDS011;41205;44.264;19.884;2022-12-18T06:57:06;68.43;;;40.03;;
55328;SDS011;41205;44.264;19.884;2022-12-18T06:59:32;47.40;;;33.03;;
55328;SDS011;41205;44.264;19.884;2022-12-18T07:01:58;46.13;;;28.92;;
55328;SDS011;41205;44.264;19.884;2022-12-18T07:04:29;43.72;;;30.02;;
55328;SDS011;41205;44.264;19.884;2022-12-18T07:06:55;56.40;;;36.88;;
55328;SDS011;41205;44.264;19.884;2022-12-18T07:09:21;55.20;;;34.88;;
55328;SDS011;41205;44.264;19.884;2022-12-18T07:11:46;63.83;;;36.97;;
55328;SDS011;41205;44.264;19.884;2022-12-18T07:14:12;62.38;;;38.85;;
55328;SDS011;41205;44.264;19.884;2022-12-18T07:16:38;53.67;;;34.47;;
55328;SDS011;41205;44.264;19.884;2022-12-18T07:19:03;40.85;;;27.08;;
55328;SDS011;41205;44.264;19.884;2022-12-18T07:21:29;41.97;;;25.92;;
55328;SDS011;41205;44.264;19.884;2022-12-18T07:23:55;44.58;;;24.50;;
55328;SDS011;41205;44.264;19.884;2022-12-18T07:26:21;48.95;;;31.67;;
55328;SDS011;41205;44.264;19.884;2022-12-18T07:28:47;60.10;;;34.28;;
55328;SDS011;41205;44.264;19.884;2022-12-18T07:31:15;51.90;;;30.45;;
55328;SDS011;41205;44.264;19.884;2022-12-18T07:33:43;44.75;;;28.92;;
55328;SDS011;41205;44.264;19.884;2022-12-18T07:36:10;68.00;;;37.58;;
55328;SDS011;41205;44.264;19.884;2022-12-18T07:38:36;59.00;;;33.60;;
55328;SDS011;41205;44.264;19.884;2022-12-18T07:41:11;56.78;;;32.20;;
55328;SDS011;41205;44.264;19.884;2022-12-18T07:43:38;58.63;;;32.90;;
55328;SDS011;41205;44.264;19.884;2022-12-18T07:46:05;55.92;;;35.53;;
55328;SDS011;41205;44.264;19.884;2022-12-18T07:48:31;64.60;;;38.38;;
55328;SDS011;41205;44.264;19.884;2022-12-18T07:50:58;44.80;;;27.23;;
55328;SDS011;41205;44.264;19.884;2022-12-18T07:53:29;83.70;;;51.60;;
55328;SDS011;41205;44.264;19.884;2022-12-18T07:56:05;73.50;;;39.45;;
55328;SDS011;41205;44.264;19.884;2022-12-18T07:58:34;59.67;;;37.97;;
55328;SDS011;41205;44.264;19.884;2022-12-18T08:01:07;86.90;;;59.83;;
55328;SDS011;41205;44.264;19.884;2022-12-18T08:03:34;54.20;;;36.53;;
55328;SDS011;41205;44.264;19.884;2022-12-18T08:06:00;114.93;;;83.55;;
55328;SDS011;41205;44.264;19.884;2022-12-18T08:08:27;54.70;;;33.58;;
55328;SDS011;41205;44.264;19.884;2022-12-18T08:10:53;51.47;;;29.55;;
55328;SDS011;41205;44.264;19.884;2022-12-18T08:13:19;46.33;;;26.67;;
55328;SDS011;41205;44.264;19.884;2022-12-18T08:15:44;79.57;;;51.42;;
55328;SDS011;41205;44.264;19.884;2022-12-18T08:18:10;63.67;;;43.17;;
55328;SDS011;41205;44.264;19.884;2022-12-18T08:20:36;53.30;;;31.40;;
55328;SDS011;41205;44.264;19.884;2022-12-18T08:23:01;62.28;;;44.70;;
55328;SDS011;41205;44.264;19.884;2022-12-18T08:25:28;43.75;;;24.98;;
55328;SDS011;41205;44.264;19.884;2022-12-18T08:27:54;44.95;;;27.13;;
55328;SDS011;41205;44.264;19.884;2022-12-18T08:30:21;52.70;;;28.42;;
55328;SDS011;41205;44.264;19.884;2022-12-18T08:32:49;54.10;;;32.97;;
55328;SDS011;41205;44.264;19.884;2022-12-18T08:35:17;47.22;;;31.65;;
55328;SDS011;41205;44.264;19.884;2022-12-18T08:37:43;49.47;;;29.70;;
55328;SDS011;41205;44.264;19.884;2022-12-18T08:40:09;52.10;;;33.53;;
55328;SDS011;41205;44.264;19.884;2022-12-18T08:42:35;51.63;;;34.40;;
55328;SDS011;41205;44.264;19.884;2022-12-18T08:45:19;54.40;;;35.05;;
55328;SDS011;41205;44.264;19.884;2022-12-18T08:47:45;43.88;;;28.75;;
55328;SDS011;41205;44.264;19.884;2022-12-18T08:50:10;43.90;;;26.40;;
55328;SDS011;41205;44.264;19.884;2022-12-18T08:52:36;54.53;;;32.03;;
55328;SDS011;41205;44.264;19.884;2022-12-18T08:55:02;49.72;;;30.02;;
55328;SDS011;41205;44.264;19.884;2022-12-18T08:57:28;50.60;;;30.80;;
55328;SDS011;41205;44.264;19.884;2022-12-18T08:59:54;56.05;;;33.03;;
55328;SDS011;41205;44.264;19.884;2022-12-18T09:02:20;58.95;;;33.78;;
55328;SDS011;41205;44.264;19.884;2022-12-18T09:04:48;56.63;;;33.15;;
55328;SDS011;41205;44.264;19.884;2022-12-18T09:07:14;52.10;;;33.85;;
55328;SDS011;41205;44.264;19.884;2022-12-18T09:09:39;53.92;;;35.35;;
55328;SDS011;41205;44.264;19.884;2022-12-18T09:12:05;54.47;;;35.08;;
55328;SDS011;41205;44.264;19.884;2022-12-18T09:14:31;48.63;;;28.73;;
55328;SDS011;41205;44.264;19.884;2022-12-18T09:16:57;56.47;;;34.35;;
55328;SDS011;41205;44.264;19.884;2022-12-18T09:19:22;58.92;;;35.92;;
55328;SDS011;41205;44.264;19.884;2022-12-18T09:21:48;59.33;;;35.67;;
55328;SDS011;41205;44.264;19.884;2022-12-18T09:24:14;61.88;;;35.03;;
55328;SDS011;41205;44.264;19.884;2022-12-18T09:26:40;60.95;;;36.42;;
55328;SDS011;41205;44.264;19.884;2022-12-18T09:29:06;52.67;;;31.90;;
55328;SDS011;41205;44.264;19.884;2022-12-18T09:31:35;69.28;;;44.17;;
55328;SDS011;41205;44.264;19.884;2022-12-18T09:34:01;53.83;;;37.42;;
55328;SDS011;41205;44.264;19.884;2022-12-18T09:36:26;60.50;;;36.30;;
55328;SDS011;41205;44.264;19.884;2022-12-18T09:38:53;56.88;;;35.60;;
55328;SDS011;41205;44.264;19.884;2022-12-18T09:47:15;69.05;;;43.65;;
55328;SDS011;41205;44.264;19.884;2022-12-18T09:49:58;69.57;;;41.38;;
55328;SDS011;41205;44.264;19.884;2022-12-18T09:52:33;75.80;;;47.72;;
55328;SDS011;41205;44.264;19.884;2022-12-18T09:57:35;71.95;;;43.63;;
55328;SDS011;41205;44.264;19.884;2022-12-18T10:00:17;64.43;;;38.28;;
55328;SDS011;41205;44.264;19.884;2022-12-18T10:02:46;65.25;;;38.33;;
55328;SDS011;41205;44.264;19.884;2022-12-18T10:05:13;62.15;;;39.63;;
55328;SDS011;41205;44.264;19.884;2022-12-18T10:15:45;70.10;;;42.72;;
55328;SDS011;41205;44.264;19.884;2022-12-18T10:21:03;104.88;;;55.50;;
55328;SDS011;41205;44.264;19.884;2022-12-18T10:26:10;62.42;;;38.30;;
55328;SDS011;41205;44.264;19.884;2022-12-18T10:28:38;62.63;;;37.22;;
55328;SDS011;41205;44.264;19.884;2022-12-18T10:31:05;56.35;;;36.53;;
55328;SDS011;41205;44.264;19.884;2022-12-18T10:33:42;65.38;;;45.13;;
55328;SDS011;41205;44.264;19.884;2022-12-18T10:36:08;58.15;;;35.08;;
55328;SDS011;41205;44.264;19.884;2022-12-18T10:38:33;62.95;;;35.20;;
55328;SDS011;41205;44.264;19.884;2022-12-18T10:46:01;65.80;;;39.17;;
55328;SDS011;41205;44.264;19.884;2022-12-18T10:48:39;55.30;;;33.55;;
55328;SDS011;41205;44.264;19.884;2022-12-18T10:51:27;85.53;;;50.55;;
55328;SDS011;41205;44.264;19.884;2022-12-18T10:53:57;64.45;;;39.47;;
55328;SDS011;41205;44.264;19.884;2022-12-18T10:56:27;75.75;;;38.90;;
55328;SDS011;41205;44.264;19.884;2022-12-18T10:58:58;52.13;;;33.65;;
55328;SDS011;41205;44.264;19.884;2022-12-18T11:06:55;71.15;;;44.13;;
55328;SDS011;41205;44.264;19.884;2022-12-18T11:09:22;65.97;;;45.45;;
55328;SDS011;41205;44.264;19.884;2022-12-18T11:11:52;82.63;;;54.80;;
55328;SDS011;41205;44.264;19.884;2022-12-18T11:14:24;58.17;;;35.15;;
55328;SDS011;41205;44.264;19.884;2022-12-18T11:17:20;68.72;;;39.78;;
55328;SDS011;41205;44.264;19.884;2022-12-18T11:19:58;62.42;;;38.65;;
55328;SDS011;41205;44.264;19.884;2022-12-18T11:24:54;64.65;;;37.20;;
55328;SDS011;41205;44.264;19.884;2022-12-18T11:27:21;110.32;;;66.82;;
55328;SDS011;41205;44.264;19.884;2022-12-18T11:29:47;93.22;;;55.22;;
55328;SDS011;41205;44.264;19.884;2022-12-18T11:35:16;74.40;;;44.83;;
55328;SDS011;41205;44.264;19.884;2022-12-18T11:37:56;57.60;;;36.38;;
55328;SDS011;41205;44.264;19.884;2022-12-18T11:40:31;71.68;;;41.08;;
55328;SDS011;41205;44.264;19.884;2022-12-18T11:43:09;63.13;;;43.13;;
55328;SDS011;41205;44.264;19.884;2022-12-18T11:48:18;79.60;;;44.85;;
55328;SDS011;41205;44.264;19.884;2022-12-18T11:50:56;86.15;;;49.38;;
55328;SDS011;41205;44.264;19.884;2022-12-18T11:53:23;83.18;;;49.30;;
55328;SDS011;41205;44.264;19.884;2022-12-18T11:58:45;70.05;;;43.05;;
55328;SDS011;41205;44.264;19.884;2022-12-18T12:01:27;84.00;;;51.38;;
55328;SDS011;41205;44.264;19.884;2022-12-18T12:04:34;63.47;;;40.65;;
55328;SDS011;41205;44.264;19.884;2022-12-18T12:07:43;66.35;;;45.05;;
55328;SDS011;41205;44.264;19.884;2022-12-18T12:18:08;81.28;;;54.15;;
55328;SDS011;41205;44.264;19.884;2022-12-18T12:35:05;89.90;;;56.90;;
55328;SDS011;41205;44.264;19.884;2022-12-18T12:40:22;65.38;;;40.38;;
55328;SDS011;41205;44.264;19.884;2022-12-18T12:42:54;68.38;;;45.90;;
55328;SDS011;41205;44.264;19.884;2022-12-18T12:48:40;53.55;;;34.00;;
55328;SDS011;41205;44.264;19.884;2022-12-18T12:53:56;55.67;;;34.67;;
55328;SDS011;41205;44.264;19.884;2022-12-18T12:56:24;58.08;;;36.97;;
55328;SDS011;41205;44.264;19.884;2022-12-18T12:59:01;50.63;;;33.40;;
55328;SDS011;41205;44.264;19.884;2022-12-18T13:09:10;54.50;;;33.20;;
55328;SDS011;41205;44.264;19.884;2022-12-18T13:14:22;53.00;;;33.42;;
55328;SDS011;41205;44.264;19.884;2022-12-18T13:16:49;58.95;;;36.58;;
55328;SDS011;41205;44.264;19.884;2022-12-18T13:19:22;59.47;;;37.55;;
55328;SDS011;41205;44.264;19.884;2022-12-18T13:21:53;58.42;;;34.90;;
55328;SDS011;41205;44.264;19.884;2022-12-18T13:24:27;52.88;;;34.50;;
55328;SDS011;41205;44.264;19.884;2022-12-18T13:26:55;65.45;;;42.65;;
55328;SDS011;41205;44.264;19.884;2022-12-18T13:29:54;68.40;;;48.67;;
55328;SDS011;41205;44.264;19.884;2022-12-18T13:32:46;60.63;;;38.05;;
55328;SDS011;41205;44.264;19.884;2022-12-18T13:37:43;68.32;;;45.38;;
55328;SDS011;41205;44.264;19.884;2022-12-18T13:46:27;118.38;;;69.65;;
55328;SDS011;41205;44.264;19.884;2022-12-18T13:51:26;70.10;;;40.72;;
55328;SDS011;41205;44.264;19.884;2022-12-18T13:53:56;70.35;;;43.03;;
55328;SDS011;41205;44.264;19.884;2022-12-18T13:56:26;78.53;;;49.13;;
55328;SDS011;41205;44.264;19.884;2022-12-18T13:59:05;140.70;;;89.25;;
55328;SDS011;41205;44.264;19.884;2022-12-18T14:01:43;125.97;;;84.78;;
55328;SDS011;41205;44.264;19.884;2022-12-18T14:04:11;92.28;;;59.88;;
55328;SDS011;41205;44.264;19.884;2022-12-18T14:06:37;104.10;;;63.28;;
55328;SDS011;41205;44.264;19.884;2022-12-18T14:09:04;90.68;;;54.47;;
55328;SDS011;41205;44.264;19.884;2022-12-18T14:11:30;73.63;;;47.15;;
55328;SDS011;41205;44.264;19.884;2022-12-18T14:13:56;97.47;;;64.82;;
55328;SDS011;41205;44.264;19.884;2022-12-18T14:16:22;79.20;;;53.13;;
55328;SDS011;41205;44.264;19.884;2022-12-18T14:18:55;86.45;;;52.58;;
55328;SDS011;41205;44.264;19.884;2022-12-18T14:21:23;77.47;;;48.80;;
55328;SDS011;41205;44.264;19.884;2022-12-18T14:26:39;72.15;;;48.13;;
55328;SDS011;41205;44.264;19.884;2022-12-18T14:29:18;90.05;;;54.70;;
55328;SDS011;41205;44.264;19.884;2022-12-18T14:31:45;79.03;;;49.80;;
55328;SDS011;41205;44.264;19.884;2022-12-18T14:34:17;85.22;;;56.25;;
55328;SDS011;41205;44.264;19.884;2022-12-18T14:39:20;68.68;;;42.60;;
55328;SDS011;41205;44.264;19.884;2022-12-18T14:41:45;59.60;;;36.42;;
55328;SDS011;41205;44.264;19.884;2022-12-18T14:44:17;60.17;;;38.25;;
55328;SDS011;41205;44.264;19.884;2022-12-18T14:46:47;65.78;;;38.33;;
55328;SDS011;41205;44.264;19.884;2022-12-18T14:49:31;71.30;;;45.47;;
55328;SDS011;41205;44.264;19.884;2022-12-18T14:52:01;70.95;;;44.42;;
55328;SDS011;41205;44.264;19.884;2022-12-18T14:54:41;60.47;;;36.75;;
55328;SDS011;41205;44.264;19.884;2022-12-18T14:57:21;69.60;;;42.55;;
55328;SDS011;41205;44.264;19.884;2022-12-18T14:59:48;66.22;;;46.10;;
55328;SDS011;41205;44.264;19.884;2022-12-18T15:07:53;56.65;;;33.35;;
55328;SDS011;41205;44.264;19.884;2022-12-18T15:12:47;67.00;;;39.53;;
55328;SDS011;41205;44.264;19.884;2022-12-18T15:17:59;66.00;;;40.63;;
55328;SDS011;41205;44.264;19.884;2022-12-18T15:20:33;75.05;;;48.38;;
55328;SDS011;41205;44.264;19.884;2022-12-18T15:23:21;96.57;;;57.83;;
55328;SDS011;41205;44.264;19.884;2022-12-18T15:26:08;72.45;;;46.28;;
55328;SDS011;41205;44.264;19.884;2022-12-18T15:28:38;88.18;;;54.75;;
55328;SDS011;41205;44.264;19.884;2022-12-18T15:31:24;81.70;;;47.13;;
55328;SDS011;41205;44.264;19.884;2022-12-18T15:36:22;61.75;;;38.92;;
55328;SDS011;41205;44.264;19.884;2022-12-18T15:38:49;60.25;;;36.70;;
55328;SDS011;41205;44.264;19.884;2022-12-18T15:41:16;64.07;;;39.13;;
55328;SDS011;41205;44.264;19.884;2022-12-18T15:43:44;55.45;;;33.83;;
55328;SDS011;41205;44.264;19.884;2022-12-18T15:48:41;60.15;;;34.17;;
55328;SDS011;41205;44.264;19.884;2022-12-18T15:51:11;83.28;;;50.55;;
55328;SDS011;41205;44.264;19.884;2022-12-18T15:53:42;91.50;;;54.15;;
55328;SDS011;41205;44.264;19.884;2022-12-18T15:56:13;76.80;;;45.75;;
55328;SDS011;41205;44.264;19.884;2022-12-18T15:58:58;83.28;;;51.95;;
55328;SDS011;41205;44.264;19.884;2022-12-18T16:01:25;79.05;;;50.40;;
55328;SDS011;41205;44.264;19.884;2022-12-18T16:03:53;84.13;;;48.30;;
55328;SDS011;41205;44.264;19.884;2022-12-18T16:06:19;81.50;;;49.70;;
55328;SDS011;41205;44.264;19.884;2022-12-18T16:08:46;98.10;;;63.88;;
55328;SDS011;41205;44.264;19.884;2022-12-18T16:14:25;103.18;;;60.97;;
55328;SDS011;41205;44.264;19.884;2022-12-18T16:16:55;101.88;;;55.65;;
55328;SDS011;41205;44.264;19.884;2022-12-18T16:19:23;74.28;;;46.35;;
55328;SDS011;41205;44.264;19.884;2022-12-18T16:21:50;69.22;;;43.53;;
55328;SDS011;41205;44.264;19.884;2022-12-18T16:24:21;92.10;;;52.90;;
55328;SDS011;41205;44.264;19.884;2022-12-18T16:26:48;121.90;;;72.85;;
55328;SDS011;41205;44.264;19.884;2022-12-18T16:29:16;173.57;;;120.63;;
55328;SDS011;41205;44.264;19.884;2022-12-18T16:31:42;75.95;;;45.85;;
55328;SDS011;41205;44.264;19.884;2022-12-18T16:36:37;84.35;;;53.03;;
55328;SDS011;41205;44.264;19.884;2022-12-18T16:39:02;97.38;;;54.97;;
55328;SDS011;41205;44.264;19.884;2022-12-18T16:41:28;119.10;;;70.95;;
55328;SDS011;41205;44.264;19.884;2022-12-18T16:43:56;67.53;;;39.17;;
55328;SDS011;41205;44.264;19.884;2022-12-18T16:46:23;78.78;;;48.63;;
55328;SDS011;41205;44.264;19.884;2022-12-18T16:48:49;94.30;;;57.42;;